Piedra, California
Current Conditions -  °F | °C
As of 10:53 AM on Thursday 27 Nov 2014 (Local Time) from KFAT Reporting Station
Haze Haze  
Wind Chill: 62°   Ceiling: 20000
Heat Index: 62°   Visibility: 4mi
Dew Point: 46°   Wind: 5mph
Humidity: 56%   Direction: 320°NW
Pressure: 30.18"   Gusts: NA
Location:  36.81°N, 119.38°W
Report Text: KFAT 271853Z 32004KT 4SM HZ SCT150 BKN200 17/08 A3018 RMK AO2 SLP218 VIS E 3 T01670078
Loading
Personal Weather Stations






























Interactive Weather Map New forecast layout! Learn more

10-Day Weather Forecast

Advertisements
Track Severe Weather on mobile